Time;durP1;ratioP1;P1;durP2;ratioP2;P2;SDS_P1;SDS_P2;PMS_P1;PMS_P2;Temp;Humidity;BMP_temperature;BMP_pressure;BME280_temperature;BME280_humidity;BME280_pressure;Samples;Min_cycle;Max_cycle;Signal;HPM_P1;HPM_P2
2024/03/10 00:01:03;;;;;;;17.92;13.30;;;9.90;99.90;;;;;;5039889;28;20025;-36
2024/03/10 00:03:29;;;;;;;20.35;15.48;;;9.90;99.90;;;;;;5039362;28;20025;-36
2024/03/10 00:05:57;;;;;;;18.50;13.88;;;9.90;99.90;;;;;;5039614;28;20047;-32
2024/03/10 00:08:23;;;;;;;18.85;14.40;;;9.90;99.90;;;;;;5038683;28;20179;-32
2024/03/10 00:10:50;;;;;;;21.60;14.85;;;9.90;99.90;;;;;;5038920;28;20037;-35
2024/03/10 00:13:15;;;;;;;19.30;14.77;;;9.80;99.90;;;;;;5039286;28;20091;-33
2024/03/10 00:15:41;;;;;;;18.75;15.00;;;9.90;99.90;;;;;;5039692;28;20816;-32
2024/03/10 00:18:06;;;;;;;19.27;14.52;;;9.80;99.90;;;;;;5039243;28;20510;-31
2024/03/10 00:20:32;;;;;;;19.80;15.13;;;9.80;99.90;;;;;;5040313;28;20542;-32
2024/03/10 00:23:05;;;;;;;20.38;14.45;;;9.80;99.90;;;;;;5039513;28;20468;-33
2024/03/10 00:25:31;;;;;;;18.83;14.15;;;9.80;99.90;;;;;;5019511;28;20030;-34
2024/03/10 00:27:56;;;;;;;22.17;16.33;;;9.80;99.90;;;;;;5033886;28;20358;-33
2024/03/10 00:30:23;;;;;;;20.08;15.48;;;9.80;99.90;;;;;;5038128;28;20758;-29
2024/03/10 00:32:49;;;;;;;21.30;16.40;;;9.80;99.90;;;;;;5039199;28;20140;-35
2024/03/10 00:35:14;;;;;;;19.02;15.43;;;9.80;99.90;;;;;;5039101;28;20439;-35
2024/03/10 00:37:43;;;;;;;18.30;14.43;;;9.70;99.90;;;;;;5042772;28;20021;-35
2024/03/10 00:40:09;;;;;;;19.85;15.10;;;9.70;99.90;;;;;;5043635;28;20082;-35
2024/03/10 00:42:34;;;;;;;20.33;16.27;;;9.70;99.90;;;;;;5042874;28;20715;-35
2024/03/10 00:45:00;;;;;;;19.63;15.57;;;9.70;99.90;;;;;;5042868;28;20040;-32
2024/03/10 00:47:25;;;;;;;18.25;15.18;;;9.70;99.90;;;;;;5042798;28;20025;-32
2024/03/10 00:49:51;;;;;;;21.73;14.95;;;9.70;99.90;;;;;;5043418;28;20076;-32
2024/03/10 00:52:17;;;;;;;19.05;14.63;;;9.70;99.90;;;;;;5042754;28;20029;-37
2024/03/10 00:54:42;;;;;;;19.27;14.57;;;9.70;99.90;;;;;;5043870;28;20044;-36
2024/03/10 00:57:08;;;;;;;19.38;14.68;;;9.70;99.90;;;;;;5043135;28;20032;-36
2024/03/10 00:59:34;;;;;;;18.95;14.18;;;9.70;99.90;;;;;;5043067;28;20024;-36
2024/03/10 01:01:59;;;;;;;19.60;14.65;;;9.70;99.90;;;;;;5043647;28;20372;-32
2024/03/10 01:04:25;;;;;;;19.70;15.30;;;9.70;99.90;;;;;;5042578;28;20025;-33
2024/03/10 01:06:51;;;;;;;20.48;15.90;;;9.70;99.90;;;;;;5042725;28;20025;-31
2024/03/10 01:09:18;;;;;;;19.05;15.07;;;9.70;99.90;;;;;;5042127;28;20206;-31
2024/03/10 01:11:47;;;;;;;20.42;15.27;;;9.70;99.90;;;;;;5042794;28;20387;-32
2024/03/10 01:14:13;;;;;;;17.30;14.30;;;9.70;99.90;;;;;;5041917;28;20202;-29
2024/03/10 01:16:40;;;;;;;23.58;16.10;;;9.70;99.90;;;;;;5043379;28;20033;-31
2024/03/10 01:19:09;;;;;;;18.98;15.48;;;9.70;99.90;;;;;;5043330;28;20080;-37
2024/03/10 01:21:35;;;;;;;18.73;14.55;;;9.70;99.90;;;;;;5042022;28;20551;-33
2024/03/10 01:24:01;;;;;;;18.48;14.50;;;9.70;99.90;;;;;;5043178;28;20464;-34
2024/03/10 01:26:26;;;;;;;22.45;14.93;;;9.60;99.90;;;;;;5041811;28;20124;-32
2024/03/10 01:28:52;;;;;;;18.65;14.98;;;9.60;99.90;;;;;;5043158;28;20044;-34
2024/03/10 01:31:17;;;;;;;19.90;14.82;;;9.60;99.90;;;;;;5042051;28;20372;-33
2024/03/10 01:33:43;;;;;;;20.35;15.27;;;9.60;99.90;;;;;;5041124;28;20490;-32
2024/03/10 01:36:08;;;;;;;18.85;14.00;;;9.60;99.90;;;;;;5042302;28;20479;-31
2024/03/10 01:38:34;;;;;;;19.45;15.02;;;9.60;99.90;;;;;;5042576;28;20112;-32
2024/03/10 01:41:11;;;;;;;19.73;15.50;;;9.60;99.90;;;;;;5041104;28;20025;-29
2024/03/10 01:43:37;;;;;;;19.27;14.57;;;9.60;99.90;;;;;;5042362;28;20040;-32
2024/03/10 01:46:08;;;;;;;20.67;15.25;;;9.60;99.90;;;;;;5041390;28;20452;-36
2024/03/10 01:48:40;;;;;;;19.85;15.32;;;9.50;99.90;;;;;;5040658;28;20025;-32
2024/03/10 01:51:08;;;;;;;21.67;14.40;;;9.60;99.90;;;;;;5042255;28;20039;-33
2024/03/10 01:53:37;;;;;;;20.55;14.60;;;9.50;99.90;;;;;;5043154;28;20021;-32
2024/03/10 01:56:04;;;;;;;20.10;14.98;;;9.50;99.90;;;;;;5042240;28;20021;-33
2024/03/10 01:58:35;;;;;;;17.38;14.05;;;9.60;99.90;;;;;;5042125;28;20021;-32
2024/03/10 02:01:04;;;;;;;19.83;14.18;;;9.60;99.90;;;;;;5041914;28;20025;-30
2024/03/10 02:03:30;;;;;;;17.00;13.70;;;9.50;99.90;;;;;;5041249;28;20376;-34
2024/03/10 02:05:59;;;;;;;17.23;14.10;;;9.60;99.90;;;;;;5042034;28;20079;-34
2024/03/10 02:08:26;;;;;;;18.45;14.13;;;9.50;99.90;;;;;;5041196;28;20052;-31
2024/03/10 02:10:52;;;;;;;17.23;13.13;;;9.60;99.90;;;;;;5041033;28;20488;-33
2024/03/10 02:13:18;;;;;;;16.13;12.32;;;9.50;99.90;;;;;;5041214;28;20029;-35
2024/03/10 02:16:05;;;;;;;19.05;14.90;;;9.50;99.90;;;;;;5040991;28;20140;-36
2024/03/10 02:18:34;;;;;;;18.52;14.43;;;9.60;99.90;;;;;;5041934;28;20048;-35
2024/03/10 02:21:02;;;;;;;19.15;14.52;;;9.60;99.90;;;;;;5041911;28;20211;-33
2024/03/10 02:23:59;;;;;;;17.02;14.07;;;9.60;99.90;;;;;;5040816;28;20101;-34
2024/03/10 02:26:32;;;;;;;17.45;13.52;;;9.60;99.90;;;;;;5041650;28;20028;-31
2024/03/10 02:29:15;;;;;;;17.77;13.68;;;9.50;99.90;;;;;;5041827;28;20037;-34
2024/03/10 02:48:19;;;;;;;19.13;14.05;;;9.50;99.90;;;;;;5040920;28;20098;-32
2024/03/10 02:50:45;;;;;;;19.75;14.73;;;9.50;99.90;;;;;;5040564;28;20028;-35
2024/03/10 02:53:11;;;;;;;21.30;15.32;;;9.50;99.90;;;;;;5040611;28;20666;-33
2024/03/10 02:55:40;;;;;;;21.55;16.77;;;9.50;99.90;;;;;;5041515;28;20032;-32
2024/03/10 02:58:06;;;;;;;21.13;16.63;;;9.50;99.90;;;;;;5040116;28;20097;-33
2024/03/10 03:00:33;;;;;;;23.00;15.88;;;9.40;99.90;;;;;;5040013;28;20021;-35
2024/03/10 03:02:59;;;;;;;21.58;16.55;;;9.40;99.90;;;;;;5041285;28;20078;-33
2024/03/10 03:05:28;;;;;;;23.63;15.93;;;9.40;99.90;;;;;;5040552;28;20053;-33
2024/03/10 03:07:55;;;;;;;21.60;16.55;;;9.40;99.90;;;;;;5040612;28;20091;-35
2024/03/10 03:10:21;;;;;;;21.85;16.55;;;9.40;99.90;;;;;;5039605;28;20021;-34
2024/03/10 03:12:47;;;;;;;21.17;16.15;;;9.40;99.90;;;;;;5040331;28;20108;-30
2024/03/10 03:15:15;;;;;;;19.98;16.15;;;9.40;99.90;;;;;;5040737;28;20047;-36
2024/03/10 03:17:41;;;;;;;22.98;17.25;;;9.40;99.90;;;;;;5040595;28;20039;-35
2024/03/10 03:20:15;;;;;;;19.98;16.10;;;9.40;99.90;;;;;;5039810;28;20385;-35
2024/03/10 03:22:42;;;;;;;21.20;16.13;;;9.40;99.90;;;;;;5039977;28;20053;-35
2024/03/10 03:25:08;;;;;;;23.33;16.38;;;9.30;99.90;;;;;;5040427;28;20040;-35
2024/03/10 03:27:35;;;;;;;24.63;17.90;;;9.30;99.90;;;;;;5040077;28;20029;-33
2024/03/10 03:30:07;;;;;;;19.77;15.50;;;9.30;99.90;;;;;;5040695;28;20061;-32
2024/03/10 03:32:36;;;;;;;22.00;16.83;;;9.30;99.90;;;;;;5040539;28;20056;-35
2024/03/10 03:35:03;;;;;;;21.38;16.40;;;9.30;99.90;;;;;;5039732;28;20068;-36
2024/03/10 03:37:29;;;;;;;23.08;16.98;;;9.30;99.90;;;;;;5039245;28;20044;-33
2024/03/10 03:39:55;;;;;;;19.20;15.27;;;9.30;99.90;;;;;;5040501;28;20111;-32
2024/03/10 03:42:20;;;;;;;19.85;14.23;;;9.30;99.90;;;;;;5039963;28;20033;-32
2024/03/10 03:44:52;;;;;;;18.98;15.30;;;9.30;99.90;;;;;;5040486;28;20041;-35
2024/03/10 03:47:17;;;;;;;17.80;14.07;;;9.30;99.90;;;;;;5039667;28;20068;-29
2024/03/10 03:49:46;;;;;;;18.73;13.43;;;9.30;99.90;;;;;;5039994;28;20423;-33
2024/03/10 03:52:11;;;;;;;17.42;13.80;;;9.30;99.90;;;;;;5040860;28;20040;-35
2024/03/10 03:54:39;;;;;;;18.08;14.93;;;9.40;99.90;;;;;;5039544;28;20411;-34
2024/03/10 03:57:06;;;;;;;18.42;14.18;;;9.30;99.90;;;;;;5040263;28;20037;-34
2024/03/10 03:59:32;;;;;;;18.55;14.13;;;9.30;99.90;;;;;;5039679;28;20100;-33
2024/03/10 04:01:58;;;;;;;20.27;14.82;;;9.30;99.90;;;;;;5039690;28;20040;-35
2024/03/10 04:04:24;;;;;;;20.25;15.90;;;9.30;99.90;;;;;;5039663;28;20025;-32
2024/03/10 04:06:49;;;;;;;19.98;15.30;;;9.30;99.90;;;;;;5039687;28;20028;-34
2024/03/10 04:09:15;;;;;;;19.38;15.40;;;9.30;99.90;;;;;;5038570;28;20139;-34
2024/03/10 04:11:43;;;;;;;18.15;15.02;;;9.30;99.90;;;;;;5038947;28;20555;-33
2024/03/10 04:14:09;;;;;;;19.77;13.80;;;9.30;99.90;;;;;;5039765;28;20021;-31
2024/03/10 04:16:35;;;;;;;16.63;13.27;;;9.20;99.90;;;;;;5039121;28;20693;-33
2024/03/10 04:19:04;;;;;;;20.08;15.93;;;9.20;99.90;;;;;;5039966;28;20535;-35
2024/03/10 04:21:30;;;;;;;21.08;16.90;;;9.20;99.90;;;;;;5038543;28;20044;-31
2024/03/10 04:23:55;;;;;;;19.42;15.30;;;9.10;99.90;;;;;;5039262;28;20033;-32
2024/03/10 04:26:23;;;;;;;20.40;16.25;;;9.10;99.90;;;;;;5039605;28;20029;-32
2024/03/10 04:28:49;;;;;;;20.67;15.93;;;9.00;99.90;;;;;;5039976;28;20036;-35
2024/03/10 04:31:16;;;;;;;21.50;16.23;;;9.00;99.90;;;;;;5038972;28;20118;-32
2024/03/10 04:33:42;;;;;;;22.67;16.30;;;9.00;99.90;;;;;;5039851;28;20024;-35
2024/03/10 04:36:11;;;;;;;20.90;16.10;;;8.90;99.90;;;;;;5039233;28;20056;-37
2024/03/10 04:38:38;;;;;;;23.63;17.08;;;8.90;99.90;;;;;;5039732;28;20059;-33
2024/03/10 04:41:04;;;;;;;22.83;16.92;;;8.80;99.90;;;;;;5039671;28;20060;-32
2024/03/10 04:43:30;;;;;;;23.00;17.25;;;8.80;99.90;;;;;;5039356;28;20025;-33
2024/03/10 04:45:57;;;;;;;24.33;17.55;;;8.80;99.90;;;;;;5040342;28;20029;-34
2024/03/10 04:48:23;;;;;;;22.75;16.73;;;8.70;99.90;;;;;;5038992;28;20101;-34
2024/03/10 04:50:49;;;;;;;21.42;16.00;;;8.70;99.90;;;;;;5038795;28;20037;-35
2024/03/10 04:53:15;;;;;;;21.67;16.48;;;8.70;99.90;;;;;;5038489;28;20036;-33
2024/03/10 04:55:40;;;;;;;22.85;17.20;;;8.60;99.90;;;;;;5037736;28;20028;-35
2024/03/10 04:58:06;;;;;;;21.38;16.40;;;8.60;99.90;;;;;;5037228;28;20084;-36
2024/03/10 05:00:32;;;;;;;22.88;16.98;;;8.60;99.90;;;;;;5037397;28;20648;-32
2024/03/10 05:02:59;;;;;;;21.13;16.27;;;8.60;99.90;;;;;;5034644;28;20146;-31
2024/03/10 05:05:25;;;;;;;24.50;18.02;;;8.60;99.90;;;;;;5037078;28;20896;-33
2024/03/10 05:07:51;;;;;;;22.00;16.25;;;8.60;99.90;;;;;;5039691;28;20095;-36
2024/03/10 05:10:19;;;;;;;24.13;18.00;;;8.60;99.90;;;;;;5040122;28;20033;-36
2024/03/10 05:12:48;;;;;;;22.52;16.75;;;8.50;99.90;;;;;;5038816;28;20736;-34
2024/03/10 05:15:15;;;;;;;22.63;17.27;;;8.60;99.90;;;;;;5039787;28;20510;-30
2024/03/10 05:17:44;;;;;;;23.90;17.48;;;8.50;99.90;;;;;;5039141;28;20025;-31
2024/03/10 05:20:11;;;;;;;24.10;18.15;;;8.50;99.90;;;;;;5038941;28;20029;-35
2024/03/10 05:22:39;;;;;;;24.13;17.50;;;8.50;99.90;;;;;;5039517;28;20025;-33
2024/03/10 05:25:08;;;;;;;23.17;17.58;;;8.50;99.90;;;;;;5042827;28;20068;-33
2024/03/10 05:27:34;;;;;;;23.70;17.30;;;8.50;99.90;;;;;;5042061;28;20017;-32
2024/03/10 05:30:00;;;;;;;27.52;18.83;;;8.50;99.90;;;;;;5043333;28;20029;-34
2024/03/10 05:32:26;;;;;;;25.20;18.67;;;8.50;99.90;;;;;;5042351;28;20868;-34
2024/03/10 05:34:56;;;;;;;26.58;18.85;;;8.50;99.90;;;;;;5042763;28;20647;-32
2024/03/10 05:37:22;;;;;;;26.58;19.38;;;8.50;99.90;;;;;;5042425;28;20096;-29
2024/03/10 05:39:48;;;;;;;27.77;19.38;;;8.50;99.90;;;;;;5042831;28;20136;-31
2024/03/10 05:42:14;;;;;;;23.85;18.33;;;8.40;99.90;;;;;;5042511;28;20023;-35
2024/03/10 05:44:40;;;;;;;25.02;18.42;;;8.40;99.90;;;;;;5042086;28;20028;-33
2024/03/10 05:47:06;;;;;;;25.85;18.98;;;8.40;99.90;;;;;;5041730;28;20032;-32
2024/03/10 05:49:32;;;;;;;27.10;19.20;;;8.40;99.90;;;;;;5042098;28;20047;-37
2024/03/10 05:51:57;;;;;;;24.35;18.08;;;8.40;99.90;;;;;;5043080;28;20476;-34
2024/03/10 05:54:23;;;;;;;25.38;18.67;;;8.40;99.90;;;;;;5040956;28;20573;-33
2024/03/10 05:56:49;;;;;;;26.92;18.83;;;8.40;99.90;;;;;;5042433;28;20029;-33
2024/03/10 05:59:15;;;;;;;26.17;19.13;;;8.40;99.90;;;;;;5042075;28;20116;-36
2024/03/10 06:01:40;;;;;;;26.85;19.23;;;8.40;99.90;;;;;;5021896;28;20063;-32
2024/03/10 06:04:09;;;;;;;26.52;19.70;;;8.30;99.90;;;;;;5036158;28;20111;-34
2024/03/10 06:06:36;;;;;;;25.85;18.75;;;8.40;99.90;;;;;;5042352;28;20124;-34
2024/03/10 06:09:05;;;;;;;26.90;18.73;;;8.30;99.90;;;;;;5042120;28;20522;-35
2024/03/10 06:11:31;;;;;;;25.60;19.35;;;8.30;99.90;;;;;;5042377;28;20553;-33
2024/03/10 06:13:57;;;;;;;25.63;18.88;;;8.30;99.90;;;;;;5042010;28;20021;-35
2024/03/10 06:16:26;;;;;;;25.30;18.15;;;8.30;99.90;;;;;;5040585;28;20032;-32
2024/03/10 06:26:54;;;;;;;27.23;18.90;;;8.30;99.90;;;;;;5042097;28;20099;-35
2024/03/10 06:29:24;;;;;;;24.50;18.65;;;8.30;99.90;;;;;;5041238;28;20514;-34
2024/03/10 06:31:50;;;;;;;26.00;18.67;;;8.30;99.90;;;;;;5042120;28;20825;-31
2024/03/10 06:34:15;;;;;;;25.77;18.45;;;8.30;99.90;;;;;;5040937;28;20037;-32
2024/03/10 06:36:41;;;;;;;26.23;18.35;;;8.30;99.90;;;;;;5040918;28;20823;-34
2024/03/10 06:39:08;;;;;;;25.27;18.40;;;8.30;99.90;;;;;;5041178;28;20040;-34
2024/03/10 06:41:34;;;;;;;26.25;18.65;;;8.30;99.90;;;;;;5041467;28;20031;-35
2024/03/10 06:44:00;;;;;;;24.08;17.90;;;8.30;99.90;;;;;;5040792;28;20021;-31
2024/03/10 06:46:27;;;;;;;23.85;17.45;;;8.30;99.90;;;;;;5037212;28;20021;-32
2024/03/10 06:48:53;;;;;;;23.67;17.48;;;8.30;99.90;;;;;;5042398;28;20025;-31
2024/03/10 06:51:22;;;;;;;24.38;17.33;;;8.30;99.90;;;;;;5040258;28;20102;-33
2024/03/10 06:53:47;;;;;;;23.80;17.08;;;8.40;99.90;;;;;;5041525;28;20029;-28
2024/03/10 06:56:14;;;;;;;23.50;17.05;;;8.40;99.90;;;;;;5040747;28;20032;-31
2024/03/10 06:58:43;;;;;;;24.77;17.10;;;8.40;99.90;;;;;;5040580;28;20032;-36
2024/03/10 07:01:10;;;;;;;26.02;19.30;;;8.40;99.90;;;;;;5040092;28;20032;-33
2024/03/10 07:03:36;;;;;;;24.52;17.38;;;8.50;99.90;;;;;;5040678;28;20025;-32
2024/03/10 07:06:03;;;;;;;25.83;18.83;;;8.50;99.90;;;;;;5040257;28;20055;-34
2024/03/10 07:08:30;;;;;;;23.40;17.55;;;8.60;99.90;;;;;;5040433;28;20143;-35
2024/03/10 07:10:56;;;;;;;24.27;18.05;;;8.60;99.90;;;;;;5040727;28;20025;-32
2024/03/10 07:13:21;;;;;;;22.75;17.05;;;8.60;99.90;;;;;;5040374;28;20062;-30
2024/03/10 07:15:47;;;;;;;24.33;18.00;;;8.60;99.90;;;;;;5040386;28;20045;-36
2024/03/10 07:18:14;;;;;;;26.42;18.75;;;8.60;99.90;;;;;;5039947;28;20024;-33
2024/03/10 07:20:40;;;;;;;23.75;17.13;;;8.70;99.90;;;;;;5040777;28;21145;-33
2024/03/10 07:23:05;;;;;;;22.17;16.27;;;8.60;99.90;;;;;;5040281;28;20108;-32
2024/03/10 07:25:32;;;;;;;20.30;15.45;;;8.70;99.90;;;;;;5040200;28;20052;-36
2024/03/10 07:27:57;;;;;;;20.63;15.57;;;8.70;99.90;;;;;;5040969;28;20128;-32
2024/03/10 07:30:23;;;;;;;21.98;16.23;;;8.70;99.90;;;;;;5040149;28;20353;-35
2024/03/10 07:32:49;;;;;;;24.27;17.80;;;8.70;99.90;;;;;;5039868;28;20052;-35
2024/03/10 07:35:16;;;;;;;21.88;16.80;;;8.80;99.90;;;;;;5039800;28;20441;-31
2024/03/10 07:37:42;;;;;;;22.00;16.77;;;8.80;99.90;;;;;;5040642;28;20128;-33
2024/03/10 07:40:16;;;;;;;23.65;16.90;;;8.80;99.90;;;;;;5039172;28;20057;-34
2024/03/10 07:42:47;;;;;;;23.48;16.58;;;8.80;99.90;;;;;;5040336;28;20021;-35
2024/03/10 07:45:17;;;;;;;23.30;17.58;;;8.80;99.90;;;;;;5040041;28;20129;-30
2024/03/10 07:47:47;;;;;;;25.42;18.25;;;8.90;99.90;;;;;;5039257;28;20100;-33
2024/03/10 07:50:16;;;;;;;23.42;17.30;;;8.80;99.90;;;;;;5040222;28;20064;-34
2024/03/10 07:52:44;;;;;;;23.35;17.60;;;8.90;99.90;;;;;;5039895;28;20013;-35
2024/03/10 07:55:09;;;;;;;21.52;17.25;;;8.90;99.90;;;;;;5039291;28;20040;-35
2024/03/10 07:57:35;;;;;;;24.08;17.67;;;9.00;99.90;;;;;;5039810;28;20024;-32
2024/03/10 08:00:05;;;;;;;22.25;17.25;;;9.00;99.90;;;;;;5040265;28;20029;-31
2024/03/10 08:02:34;;;;;;;21.92;15.98;;;9.10;99.90;;;;;;5038826;28;20099;-34
2024/03/10 08:05:00;;;;;;;19.42;15.30;;;9.20;99.90;;;;;;5039075;28;20059;-36
2024/03/10 08:07:25;;;;;;;19.48;15.60;;;9.20;99.90;;;;;;5038862;28;20049;-33
2024/03/10 08:09:51;;;;;;;21.92;16.33;;;9.30;99.90;;;;;;5040243;28;20037;-32
2024/03/10 08:12:19;;;;;;;23.38;17.15;;;9.40;99.90;;;;;;5039353;28;20031;-33
2024/03/10 08:14:45;;;;;;;23.27;17.33;;;9.50;99.90;;;;;;5039355;28;20598;-36
2024/03/10 08:17:11;;;;;;;22.65;16.90;;;9.50;99.90;;;;;;5039631;28;20029;-30
2024/03/10 08:19:42;;;;;;;23.25;17.40;;;9.50;99.90;;;;;;5039649;28;20040;-35
2024/03/10 08:22:08;;;;;;;25.23;17.75;;;9.50;99.90;;;;;;5039254;28;20033;-34
2024/03/10 08:24:36;;;;;;;24.58;18.25;;;9.60;99.90;;;;;;5039419;28;20056;-35
2024/03/10 08:27:08;;;;;;;22.38;16.88;;;9.60;99.90;;;;;;5039506;28;20036;-31
2024/03/10 08:29:33;;;;;;;23.40;17.42;;;9.60;99.90;;;;;;5038769;28;20057;-30
2024/03/10 08:31:59;;;;;;;21.63;17.00;;;9.70;99.90;;;;;;5038234;28;20123;-33
2024/03/10 08:34:27;;;;;;;20.27;15.85;;;9.70;99.90;;;;;;5038509;28;20772;-35
2024/03/10 08:36:53;;;;;;;19.90;16.13;;;9.70;99.90;;;;;;5019759;28;20029;-31
2024/03/10 08:39:19;;;;;;;20.92;15.77;;;9.80;99.90;;;;;;5032999;28;20070;-35
2024/03/10 08:41:45;;;;;;;23.48;17.98;;;9.80;99.90;;;;;;5039443;28;20041;-30
2024/03/10 08:44:11;;;;;;;23.13;16.58;;;9.80;99.90;;;;;;5038852;28;20324;-32
2024/03/10 08:46:37;;;;;;;24.60;17.20;;;9.80;99.90;;;;;;5037163;28;20064;-34
2024/03/10 08:49:02;;;;;;;22.45;16.85;;;9.80;99.90;;;;;;5038741;28;20032;-33
2024/03/10 08:51:28;;;;;;;22.00;17.20;;;9.80;99.90;;;;;;5038342;28;20295;-35
2024/03/10 08:53:54;;;;;;;24.77;18.48;;;9.80;99.90;;;;;;5038743;28;20460;-32
2024/03/10 08:56:20;;;;;;;24.20;17.85;;;9.80;99.90;;;;;;5038431;28;20025;-33
2024/03/10 08:58:49;;;;;;;24.83;18.73;;;9.90;99.90;;;;;;5040533;28;20029;-38
2024/03/10 09:01:16;;;;;;;23.33;17.77;;;9.90;99.90;;;;;;5042145;28;20447;-31
2024/03/10 09:03:42;;;;;;;22.60;16.38;;;10.00;99.90;;;;;;5041661;28;20781;-34
2024/03/10 09:06:07;;;;;;;21.90;17.50;;;10.00;99.90;;;;;;5043042;28;20033;-33
2024/03/10 09:08:33;;;;;;;23.95;18.60;;;10.10;99.90;;;;;;5042250;28;20086;-31
2024/03/10 09:11:00;;;;;;;26.40;18.00;;;10.20;99.90;;;;;;5042232;28;20094;-31
2024/03/10 09:13:26;;;;;;;24.40;18.20;;;10.20;99.90;;;;;;5042696;28;20040;-33
2024/03/10 09:15:51;;;;;;;21.80;16.90;;;10.20;99.90;;;;;;5042430;28;20032;-30
2024/03/10 09:18:17;;;;;;;22.85;17.17;;;10.30;99.90;;;;;;5041638;28;20025;-34
2024/03/10 09:20:45;;;;;;;22.38;17.15;;;10.30;99.90;;;;;;5041714;28;20032;-35
2024/03/10 09:23:11;;;;;;;26.95;19.20;;;10.40;99.90;;;;;;5040099;28;20029;-33
2024/03/10 09:25:37;;;;;;;25.95;18.17;;;10.40;99.90;;;;;;5040012;28;20036;-36
2024/03/10 09:28:05;;;;;;;21.50;16.95;;;10.50;99.90;;;;;;5040227;28;20714;-35
2024/03/10 09:30:32;;;;;;;22.95;17.92;;;10.50;99.90;;;;;;5040494;28;20067;-36
2024/03/10 09:32:58;;;;;;;23.70;16.77;;;10.60;99.90;;;;;;5039816;28;20079;-35
2024/03/10 09:35:27;;;;;;;24.00;18.40;;;10.70;99.90;;;;;;5039948;28;20040;-32
2024/03/10 09:37:53;;;;;;;25.35;18.67;;;10.70;99.90;;;;;;5042198;28;20021;-31
2024/03/10 09:40:29;;;;;;;22.02;17.35;;;10.80;99.90;;;;;;5040952;28;20036;-32
2024/03/10 09:43:02;;;;;;;25.42;17.55;;;10.80;99.90;;;;;;5032330;28;20411;-34
2024/03/10 09:45:28;;;;;;;23.13;17.55;;;10.90;99.90;;;;;;5041808;28;20029;-36
2024/03/10 09:47:55;;;;;;;23.20;17.25;;;10.90;99.90;;;;;;5040704;28;20033;-35
2024/03/10 09:50:24;;;;;;;25.02;18.38;;;10.90;99.90;;;;;;5040774;28;20148;-35
2024/03/10 09:52:59;;;;;;;24.77;17.75;;;11.00;99.90;;;;;;5040804;28;20083;-35
2024/03/10 09:55:25;;;;;;;24.10;18.30;;;11.00;99.90;;;;;;5041414;28;20400;-32
2024/03/10 09:57:54;;;;;;;23.33;16.70;;;11.00;99.90;;;;;;5041275;28;20021;-33
2024/03/10 10:00:25;;;;;;;22.70;18.15;;;11.10;99.90;;;;;;5040635;28;20086;-32
2024/03/10 10:03:15;;;;;;;24.23;18.52;;;11.10;99.90;;;;;;5040773;28;20021;-35
2024/03/10 10:05:47;;;;;;;23.00;17.95;;;11.10;99.90;;;;;;5041395;28;20503;-32
2024/03/10 10:08:13;;;;;;;23.98;17.95;;;11.20;99.90;;;;;;5037012;28;20072;-35
2024/03/10 10:10:58;;;;;;;21.27;16.35;;;11.20;99.90;;;;;;5041769;28;20032;-32
2024/03/10 10:13:28;;;;;;;23.80;18.50;;;11.30;99.90;;;;;;5040938;28;20033;-35
2024/03/10 10:15:55;;;;;;;22.60;18.15;;;11.30;99.90;;;;;;5041126;28;20033;-36
2024/03/10 10:18:27;;;;;;;22.83;17.83;;;11.40;99.90;;;;;;5040900;28;20025;-31
2024/03/10 10:20:53;;;;;;;25.13;19.40;;;11.40;99.90;;;;;;5041712;28;20146;-34
2024/03/10 10:23:23;;;;;;;24.35;18.70;;;11.40;99.90;;;;;;5040656;28;20543;-34
2024/03/10 10:26:10;;;;;;;23.63;18.98;;;11.40;99.90;;;;;;5041384;28;20116;-35
2024/03/10 10:28:41;;;;;;;25.35;18.73;;;11.40;99.90;;;;;;5039962;28;20074;-35
2024/03/10 10:31:10;;;;;;;22.90;17.70;;;11.40;99.90;;;;;;5040997;28;20037;-33
2024/03/10 10:33:38;;;;;;;23.83;18.42;;;11.50;99.90;;;;;;5040209;28;20507;-33
2024/03/10 10:36:07;;;;;;;26.17;18.92;;;11.50;99.90;;;;;;5040473;28;20040;-32
2024/03/10 10:38:41;;;;;;;21.35;17.33;;;11.60;99.90;;;;;;5039865;28;20032;-28
2024/03/10 10:41:07;;;;;;;24.75;19.10;;;11.60;99.90;;;;;;5020569;28;20033;-33
2024/03/10 10:43:38;;;;;;;27.60;19.85;;;11.70;99.90;;;;;;5034435;28;20040;-34
2024/03/10 10:46:10;;;;;;;24.70;19.73;;;11.70;99.90;;;;;;5040835;28;20027;-33
2024/03/10 10:48:36;;;;;;;23.02;17.67;;;11.80;99.90;;;;;;5040089;28;20060;-31
2024/03/10 10:51:06;;;;;;;21.38;17.27;;;11.80;99.90;;;;;;5040493;28;20036;-31
2024/03/10 10:53:32;;;;;;;23.00;18.55;;;11.90;99.90;;;;;;5039913;28;20029;-32
2024/03/10 10:56:01;;;;;;;21.52;17.25;;;12.00;99.90;;;;;;5040336;28;20040;-31
2024/03/10 10:58:34;;;;;;;21.02;17.10;;;12.00;99.90;;;;;;5039195;28;20504;-33
2024/03/10 11:01:04;;;;;;;23.35;19.30;;;12.10;99.90;;;;;;5040199;28;20821;-32
2024/03/10 11:03:36;;;;;;;22.45;17.95;;;12.00;99.90;;;;;;5039263;28;20078;-34
2024/03/10 11:06:02;;;;;;;22.83;18.35;;;12.00;99.90;;;;;;5039780;28;20036;-35
2024/03/10 11:08:39;;;;;;;23.00;18.80;;;12.00;99.90;;;;;;5038842;28;20045;-36
2024/03/10 11:11:05;;;;;;;22.00;17.23;;;12.10;99.90;;;;;;5038980;28;20025;-31
2024/03/10 11:13:32;;;;;;;19.85;16.65;;;12.10;99.90;;;;;;5039151;28;20032;-36
2024/03/10 11:16:14;;;;;;;20.05;16.48;;;12.10;99.90;;;;;;5040659;28;20067;-31
2024/03/10 11:18:41;;;;;;;21.13;16.75;;;12.20;99.90;;;;;;5036917;28;20071;-35
2024/03/10 11:21:17;;;;;;;21.05;16.98;;;12.30;99.90;;;;;;5039111;28;20029;-35
2024/03/10 11:23:45;;;;;;;23.30;18.38;;;12.40;99.90;;;;;;5040255;28;20112;-33
2024/03/10 11:26:12;;;;;;;22.85;16.95;;;12.50;99.90;;;;;;5038833;28;20041;-28
2024/03/10 11:28:58;;;;;;;23.27;18.30;;;12.60;99.90;;;;;;5039160;28;20021;-35
2024/03/10 11:31:23;;;;;;;20.52;16.45;;;12.70;99.90;;;;;;5027820;28;20131;-35
2024/03/10 11:33:52;;;;;;;23.48;18.23;;;12.80;99.90;;;;;;5039519;28;20082;-32
2024/03/10 11:36:22;;;;;;;22.02;17.48;;;12.80;99.90;;;;;;5039319;28;20720;-36
2024/03/10 11:38:48;;;;;;;23.13;17.75;;;12.90;99.90;;;;;;5039206;28;20035;-33
2024/03/10 11:41:14;;;;;;;21.48;18.00;;;12.90;99.90;;;;;;5039431;28;20425;-35
2024/03/10 11:43:41;;;;;;;20.65;16.85;;;13.00;99.90;;;;;;5039348;28;20504;-35
2024/03/10 11:46:29;;;;;;;19.65;15.88;;;13.00;99.90;;;;;;5039085;28;20131;-34
2024/03/10 11:48:56;;;;;;;18.63;14.57;;;13.10;99.90;;;;;;5039745;28;20498;-30
2024/03/10 11:51:29;;;;;;;18.15;15.13;;;13.20;99.90;;;;;;5039194;28;20040;-32
2024/03/10 11:53:55;;;;;;;17.38;14.25;;;13.30;99.90;;;;;;5039553;28;20143;-31
2024/03/10 11:56:24;;;;;;;19.13;14.55;;;13.30;99.90;;;;;;5039559;28;20048;-35
2024/03/10 11:58:57;;;;;;;19.23;15.90;;;13.40;99.90;;;;;;5040707;28;20082;-30
2024/03/10 12:01:23;;;;;;;17.42;14.48;;;13.40;99.90;;;;;;5038705;28;20017;-33
2024/03/10 12:03:53;;;;;;;19.35;15.43;;;13.40;99.90;;;;;;5040024;28;20102;-37
2024/03/10 12:06:20;;;;;;;20.88;16.95;;;13.40;99.90;;;;;;5039316;28;20032;-36
2024/03/10 12:08:45;;;;;;;19.83;15.82;;;13.50;99.90;;;;;;5039748;28;20518;-37
2024/03/10 12:11:12;;;;;;;22.05;17.20;;;13.50;99.90;;;;;;5039612;28;20075;-33
2024/03/10 12:13:50;;;;;;;19.05;16.20;;;13.50;99.80;;;;;;5038585;28;20025;-37
2024/03/10 12:16:20;;;;;;;19.50;15.27;;;13.50;99.90;;;;;;5037053;28;20701;-31
2024/03/10 12:18:46;;;;;;;16.73;14.40;;;13.60;99.90;;;;;;5037918;28;20117;-32
2024/03/10 12:21:18;;;;;;;16.35;13.75;;;13.70;99.90;;;;;;5037641;28;20112;-32
2024/03/10 12:23:45;;;;;;;18.45;15.48;;;13.80;99.90;;;;;;5039479;28;20330;-35
2024/03/10 12:26:13;;;;;;;16.63;14.18;;;13.90;99.80;;;;;;5038130;28;20023;-35
2024/03/10 12:28:43;;;;;;;19.05;15.63;;;13.90;99.90;;;;;;5035012;28;20021;-34
2024/03/10 12:31:15;;;;;;;19.58;16.35;;;13.90;99.50;;;;;;5038182;28;20388;-34
2024/03/10 12:33:52;;;;;;;21.65;16.85;;;13.90;99.30;;;;;;5042974;28;20083;-36
2024/03/10 12:36:20;;;;;;;21.40;17.35;;;13.90;99.40;;;;;;5041870;28;20037;-32
2024/03/10 12:38:46;;;;;;;20.67;16.83;;;13.90;99.30;;;;;;5043727;28;20032;-34
2024/03/10 12:41:13;;;;;;;21.63;17.75;;;13.90;99.10;;;;;;5042721;28;20024;-32
2024/03/10 12:43:48;;;;;;;24.13;19.27;;;13.90;98.90;;;;;;5042045;28;20025;-32
2024/03/10 12:46:22;;;;;;;23.40;18.80;;;13.80;98.70;;;;;;5042694;28;20040;-37
2024/03/10 12:48:48;;;;;;;20.42;17.05;;;13.80;98.80;;;;;;5042175;28;20144;-33
2024/03/10 12:51:16;;;;;;;20.50;16.90;;;13.80;99.00;;;;;;5042769;28;20025;-32
2024/03/10 12:53:42;;;;;;;20.42;16.58;;;13.80;99.00;;;;;;5039544;28;20025;-35
2024/03/10 12:56:16;;;;;;;20.48;16.55;;;13.80;99.00;;;;;;5042353;28;20059;-34
2024/03/10 12:58:43;;;;;;;20.13;15.95;;;13.90;99.10;;;;;;5043274;28;20017;-33
2024/03/10 13:01:09;;;;;;;18.50;15.35;;;13.90;99.10;;;;;;5042081;28;20788;-36